Time;durP1;ratioP1;P1;durP2;ratioP2;P2;SDS_P1;SDS_P2;PMS_P1;PMS_P2;Temp;Humidity;BMP_temperature;BMP_pressure;BME280_temperature;BME280_humidity;BME280_pressure;Samples;Min_cycle;Max_cycle;Signal;HPM_P1;HPM_P2
2023/02/10 00:01:20;;;;;;;;;;;-1.30;97.80;;;;;;4927111;29;19975;-85
2023/02/10 00:03:46;;;;;;;;;;;-1.30;97.80;;;;;;4938435;29;20006;-85
2023/02/10 00:06:12;;;;;;;;;;;-1.30;97.90;;;;;;4936144;29;20629;-85
2023/02/10 00:08:38;;;;;;;;;;;-1.30;97.90;;;;;;4928228;29;19911;-85
2023/02/10 00:11:04;;;;;;;;;;;-1.40;98.00;;;;;;4931847;29;19918;-85
2023/02/10 00:13:30;;;;;;;;;;;-1.40;98.00;;;;;;4909646;29;19962;-85
2023/02/10 00:16:00;;;;;;;;;;;-1.40;98.10;;;;;;4930603;29;19911;-83
2023/02/10 00:18:25;;;;;;;;;;;-1.40;98.20;;;;;;4932960;29;19906;-81
2023/02/10 00:20:51;;;;;;;;;;;-1.40;98.30;;;;;;4919049;29;19919;-84
2023/02/10 00:23:17;;;;;;;;;;;-1.40;98.40;;;;;;4934612;29;19927;-81
2023/02/10 00:25:42;;;;;;;;;;;-1.40;98.50;;;;;;4939631;29;19907;-81
2023/02/10 00:28:08;;;;;;;;;;;-1.40;98.50;;;;;;4928821;28;19915;-84
2023/02/10 00:30:33;;;;;;;;;;;-1.40;98.50;;;;;;4946651;29;19915;-83
2023/02/10 00:32:59;;;;;;;;;;;-1.40;98.50;;;;;;4923194;29;19915;-83
2023/02/10 00:35:24;;;;;;;;;;;-1.40;98.60;;;;;;4927019;29;19942;-84
2023/02/10 00:37:50;;;;;;;;;;;-1.40;98.60;;;;;;4949246;29;19915;-84
2023/02/10 00:40:16;;;;;;;;;;;-1.40;98.60;;;;;;4933275;29;19942;-83
2023/02/10 00:42:42;;;;;;;;;;;-1.30;98.60;;;;;;4942865;29;19917;-83
2023/02/10 00:45:07;;;;;;;;;;;-1.30;98.70;;;;;;4956168;29;20406;-84
2023/02/10 00:47:33;;;;;;;;;;;-1.30;98.60;;;;;;4948635;29;20415;-83
2023/02/10 00:49:58;;;;;;;;;;;-1.30;98.50;;;;;;4945843;29;19899;-83
2023/02/10 00:52:25;;;;;;;;;;;-1.30;98.50;;;;;;4926581;29;19944;-83
2023/02/10 00:54:50;;;;;;;;;;;-1.30;98.50;;;;;;4946201;29;19919;-83
2023/02/10 00:57:16;;;;;;;;;;;-1.30;98.50;;;;;;4944277;29;19922;-82
2023/02/10 00:59:41;;;;;;;;;;;-1.30;98.60;;;;;;4913788;29;19967;-83
2023/02/10 01:02:07;;;;;;;;;;;-1.20;98.60;;;;;;4931959;29;19915;-83
2023/02/10 01:04:33;;;;;;;;;;;-1.30;98.50;;;;;;4917828;29;19935;-84
2023/02/10 01:06:59;;;;;;;;;;;-1.30;98.50;;;;;;4933521;29;19918;-85
2023/02/10 01:09:24;;;;;;;;;;;-1.30;98.50;;;;;;4911127;29;19911;-83
2023/02/10 01:11:50;;;;;;;;;;;-1.30;98.60;;;;;;4914386;29;19930;-83
2023/02/10 01:14:16;;;;;;;;;;;-1.40;98.60;;;;;;4935372;29;19915;-84
2023/02/10 01:16:41;;;;;;;;;;;-1.40;98.70;;;;;;4924274;29;19997;-84
2023/02/10 01:19:07;;;;;;;;;;;-1.40;98.80;;;;;;4919061;29;19911;-83
2023/02/10 01:21:33;;;;;;;;;;;-1.40;98.80;;;;;;4932930;29;19974;-84
2023/02/10 01:23:58;;;;;;;;;;;-1.40;98.80;;;;;;4937776;29;19918;-84
2023/02/10 01:26:24;;;;;;;;;;;-1.50;98.80;;;;;;4930273;29;19943;-83
2023/02/10 01:28:49;;;;;;;;;;;-1.50;98.90;;;;;;4926183;29;19936;-82
2023/02/10 01:31:16;;;;;;;;;;;-1.50;98.90;;;;;;4942454;29;19911;-83
2023/02/10 01:33:42;;;;;;;;;;;-1.50;98.90;;;;;;4919152;29;19926;-84
2023/02/10 01:36:09;;;;;;;;;;;-1.60;99.00;;;;;;4928885;29;19911;-85
2023/02/10 01:38:35;;;;;;;;;;;-1.60;99.00;;;;;;4911119;29;19939;-85
2023/02/10 01:41:01;;;;;;;;;;;-1.60;99.10;;;;;;4930750;29;19911;-85
2023/02/10 01:43:26;;;;;;;;;;;-1.60;99.10;;;;;;4931404;29;19903;-82
2023/02/10 01:45:52;;;;;;;;;;;-1.60;99.20;;;;;;4954261;28;19919;-84
2023/02/10 01:48:17;;;;;;;;;;;-1.60;99.20;;;;;;4927385;29;19962;-85
2023/02/10 01:50:46;;;;;;;;;;;-1.60;99.20;;;;;;4917317;29;19962;-85
2023/02/10 01:53:12;;;;;;;;;;;-1.70;99.20;;;;;;4906974;29;19919;-85
2023/02/10 01:55:39;;;;;;;;;;;-1.70;99.30;;;;;;4921847;29;19922;-86
2023/02/10 01:58:06;;;;;;;;;;;-1.70;99.30;;;;;;4918485;29;19918;-85
2023/02/10 02:00:31;;;;;;;;;;;-1.70;99.30;;;;;;4925906;29;19914;-84
2023/02/10 02:02:57;;;;;;;;;;;-1.70;99.30;;;;;;4935240;29;19911;-82
2023/02/10 02:05:29;;;;;;;;;;;-1.70;99.30;;;;;;4924262;29;19921;-84
2023/02/10 02:07:56;;;;;;;;;;;-1.70;99.30;;;;;;4918783;29;20018;-84
2023/02/10 02:10:23;;;;;;;;;;;-1.70;99.50;;;;;;4925050;29;20001;-85
2023/02/10 02:12:52;;;;;;;;;;;-1.70;99.50;;;;;;4938814;29;19918;-85
2023/02/10 02:15:32;;;;;;;;;;;-1.70;99.50;;;;;;4934104;29;19942;-83
2023/02/10 02:17:58;;;;;;;;;;;-1.70;99.60;;;;;;4933996;29;19935;-85
2023/02/10 02:20:50;;;;;;;;;;;-1.70;99.60;;;;;;4933392;29;19915;-85
2023/02/10 02:23:19;;;;;;;;;;;-1.70;99.70;;;;;;4929435;29;19962;-83
2023/02/10 02:25:48;;;;;;;;;;;-1.70;99.60;;;;;;4923597;29;19918;-85
2023/02/10 02:28:16;;;;;;;;;;;-1.70;99.70;;;;;;4938557;29;20332;-84
2023/02/10 02:30:45;;;;;;;;;;;-1.70;99.80;;;;;;4913700;29;19919;-85
2023/02/10 02:33:17;;;;;;;;;;;-1.60;99.80;;;;;;4942077;29;20403;-84
2023/02/10 02:35:45;;;;;;;;;;;-1.60;99.80;;;;;;4939447;29;19961;-84
2023/02/10 02:38:11;;;;;;;;;;;-1.60;99.70;;;;;;4923499;29;19915;-85
2023/02/10 02:40:37;;;;;;;;;;;-1.60;99.50;;;;;;4913628;29;19911;-84
2023/02/10 02:43:02;;;;;;;;;;;-1.50;99.40;;;;;;4915920;29;20395;-84
2023/02/10 02:45:51;;;;;;;;;;;-1.50;99.30;;;;;;4923506;29;19912;-83
2023/02/10 02:48:40;;;;;;;;;;;-1.50;99.20;;;;;;4944965;29;19915;-80
2023/02/10 02:51:24;;;;;;;;;;;-1.50;99.20;;;;;;4953009;29;19962;-80
2023/02/10 02:53:55;;;;;;;;;;;-1.50;99.10;;;;;;4943740;29;19923;-81
2023/02/10 02:56:34;;;;;;;;;;;-1.50;99.00;;;;;;4930220;29;19978;-81
2023/02/10 02:59:26;;;;;;;;;;;-1.50;98.90;;;;;;4945508;29;19917;-84
2023/02/10 03:01:56;;;;;;;;;;;-1.40;98.90;;;;;;4916072;29;19915;-84
2023/02/10 03:04:22;;;;;;;;;;;-1.40;98.80;;;;;;4919604;29;20047;-84
2023/02/10 03:06:48;;;;;;;;;;;-1.40;98.60;;;;;;4930519;29;19915;-84
2023/02/10 03:09:14;;;;;;;;;;;-1.40;98.60;;;;;;4928874;29;19919;-85
2023/02/10 03:11:39;;;;;;;;;;;-1.50;98.40;;;;;;4945711;29;20022;-84
2023/02/10 03:14:05;;;;;;;;;;;-1.50;98.60;;;;;;4952770;29;19915;-84
2023/02/10 03:16:30;;;;;;;;;;;-1.50;98.20;;;;;;4927963;29;19919;-84
2023/02/10 03:18:56;;;;;;;;;;;-1.50;98.20;;;;;;4941286;29;19927;-83
2023/02/10 03:21:22;;;;;;;;;;;-1.60;98.20;;;;;;4936635;29;19921;-81
2023/02/10 03:23:47;;;;;;;;;;;-1.60;98.20;;;;;;4928071;29;19934;-82
2023/02/10 03:26:13;;;;;;;;;;;-1.60;98.30;;;;;;4954824;28;19911;-82
2023/02/10 03:28:38;;;;;;;;;;;-1.70;98.40;;;;;;4925538;29;19907;-82
2023/02/10 03:31:05;;;;;;;;;;;-1.70;98.60;;;;;;4951851;28;19899;-83
2023/02/10 03:33:30;;;;;;;;;;;-1.70;98.80;;;;;;4946026;29;19919;-81
2023/02/10 03:35:57;;;;;;;;;;;-1.70;98.90;;;;;;4935617;29;19967;-82
2023/02/10 03:38:25;;;;;;;;;;;-1.80;98.90;;;;;;4950790;29;19950;-85
2023/02/10 03:40:51;;;;;;;;;;;-1.80;98.90;;;;;;4933293;29;19962;-84
2023/02/10 03:43:16;;;;;;;;;;;-1.80;99.00;;;;;;4935164;29;19911;-85
2023/02/10 03:45:42;;;;;;;;;;;-1.80;99.10;;;;;;4924310;29;19967;-84
2023/02/10 03:48:08;;;;;;;;;;;-1.80;99.10;;;;;;4930232;29;19926;-84
2023/02/10 03:50:34;;;;;;;;;;;-1.80;99.00;;;;;;4920999;29;20347;-84
2023/02/10 03:52:59;;;;;;;;;;;-1.80;99.00;;;;;;4914320;29;19979;-83
2023/02/10 03:55:25;;;;;;;;;;;-1.90;99.00;;;;;;4908581;29;20254;-84
2023/02/10 03:57:51;;;;;;;;;;;-1.90;99.10;;;;;;4908516;29;19915;-83
2023/02/10 04:00:17;;;;;;;;;;;-1.90;99.10;;;;;;4939049;29;19983;-83
2023/02/10 04:02:42;;;;;;;;;;;-1.90;99.10;;;;;;4944546;29;19899;-83
2023/02/10 04:05:08;;;;;;;;;;;-1.90;99.00;;;;;;4927429;29;19911;-83
2023/02/10 04:07:33;;;;;;;;;;;-1.90;99.00;;;;;;4923189;29;19911;-85
2023/02/10 04:09:59;;;;;;;;;;;-1.90;99.00;;;;;;4922896;29;19915;-85
2023/02/10 04:12:24;;;;;;;;;;;-1.90;99.20;;;;;;4912449;29;19899;-84
2023/02/10 04:14:50;;;;;;;;;;;-1.90;99.20;;;;;;4932621;29;19993;-82
2023/02/10 04:17:16;;;;;;;;;;;-2.00;99.20;;;;;;4923818;29;20226;-84
2023/02/10 04:19:41;;;;;;;;;;;-2.00;99.10;;;;;;4929565;29;19926;-83
2023/02/10 04:22:07;;;;;;;;;;;-2.00;99.10;;;;;;4938813;29;19930;-85
2023/02/10 04:24:32;;;;;;;;;;;-2.00;99.10;;;;;;4910956;29;19911;-85
2023/02/10 04:26:58;;;;;;;;;;;-2.00;99.20;;;;;;4931536;29;19918;-84
2023/02/10 04:29:23;;;;;;;;;;;-2.10;99.40;;;;;;4935885;29;19921;-84
2023/02/10 04:31:49;;;;;;;;;;;-2.10;99.50;;;;;;4911178;29;19911;-85
2023/02/10 04:34:14;;;;;;;;;;;-2.10;99.40;;;;;;4923102;29;20019;-84
2023/02/10 04:36:40;;;;;;;;;;;-2.20;99.40;;;;;;4930946;29;20356;-83
2023/02/10 04:39:05;;;;;;;;;;;-2.20;99.50;;;;;;4922275;29;19930;-83
2023/02/10 04:41:31;;;;;;;;;;;-2.20;99.50;;;;;;4910912;29;19915;-82
2023/02/10 04:43:56;;;;;;;;;;;-2.30;99.40;;;;;;4939705;29;20001;-82
2023/02/10 04:46:22;;;;;;;;;;;-2.30;99.20;;;;;;4911157;29;19922;-84
2023/02/10 04:48:48;;;;;;;;;;;-2.30;99.20;;;;;;4935685;29;19915;-83
2023/02/10 04:51:13;;;;;;;;;;;-2.40;99.20;;;;;;4933758;29;20004;-83
2023/02/10 04:53:39;;;;;;;;;;;-2.50;99.40;;;;;;4939454;29;19946;-84
2023/02/10 04:56:06;;;;;;;;;;;-2.50;99.50;;;;;;4910777;29;20409;-80
2023/02/10 04:58:32;;;;;;;;;;;-2.50;99.60;;;;;;4933222;29;20009;-83
2023/02/10 05:00:57;;;;;;;;;;;-2.60;99.60;;;;;;4932418;29;19911;-81
2023/02/10 05:03:23;;;;;;;;;;;-2.60;99.70;;;;;;4929197;29;20337;-83
2023/02/10 05:05:51;;;;;;;;;;;-2.60;99.80;;;;;;4928035;29;19918;-83
2023/02/10 05:08:19;;;;;;;;;;;-2.60;99.90;;;;;;4927758;29;20391;-83
2023/02/10 05:10:48;;;;;;;;;;;-2.60;99.90;;;;;;4908871;29;19951;-83
2023/02/10 05:13:14;;;;;;;;;;;-2.60;99.90;;;;;;4909578;29;19918;-85
2023/02/10 05:15:39;;;;;;;;;;;-2.60;99.90;;;;;;4926371;29;19915;-83
2023/02/10 05:18:05;;;;;;;;;;;-2.60;99.90;;;;;;4915717;29;19935;-82
2023/02/10 05:20:30;;;;;;;;;;;-2.70;99.90;;;;;;4926030;29;20147;-81
2023/02/10 05:22:56;;;;;;;;;;;-2.70;99.90;;;;;;4904569;29;19963;-80
2023/02/10 05:25:21;;;;;;;;;;;-2.60;99.90;;;;;;4911276;29;19930;-81
2023/02/10 05:27:47;;;;;;;;;;;-2.70;99.90;;;;;;4909390;29;19922;-82
2023/02/10 05:30:13;;;;;;;;;;;-2.70;99.90;;;;;;4897266;29;20392;-81
2023/02/10 05:32:41;;;;;;;;;;;-2.70;99.90;;;;;;4928084;29;19943;-81
2023/02/10 05:35:07;;;;;;;;;;;-2.70;99.90;;;;;;4927873;29;19915;-81
2023/02/10 05:37:32;;;;;;;;;;;-2.70;99.90;;;;;;4926399;29;19962;-80
2023/02/10 05:39:58;;;;;;;;;;;-2.70;99.90;;;;;;4933224;29;19995;-81
2023/02/10 05:42:23;;;;;;;;;;;-2.60;99.90;;;;;;4912263;29;19958;-81
2023/02/10 05:44:49;;;;;;;;;;;-2.70;99.90;;;;;;4934245;29;19899;-83
2023/02/10 05:47:14;;;;;;;;;;;-2.70;99.90;;;;;;4928667;28;19907;-80
2023/02/10 05:49:40;;;;;;;;;;;-2.60;99.90;;;;;;4938334;28;19914;-81
2023/02/10 05:52:05;;;;;;;;;;;-2.60;99.90;;;;;;4938080;28;19983;-82
2023/02/10 05:54:31;;;;;;;;;;;-2.70;99.90;;;;;;4933223;29;19947;-83
2023/02/10 05:56:56;;;;;;;;;;;-2.80;99.90;;;;;;4933255;29;19911;-84
2023/02/10 05:59:22;;;;;;;;;;;-2.70;99.90;;;;;;4932602;29;19943;-83
2023/02/10 06:01:47;;;;;;;;;;;-2.80;99.90;;;;;;4923053;29;19923;-83
2023/02/10 06:04:13;;;;;;;;;;;-2.80;99.90;;;;;;4934993;29;19912;-80
2023/02/10 06:06:39;;;;;;;;;;;-2.80;99.90;;;;;;4918683;29;19911;-79
2023/02/10 06:09:04;;;;;;;;;;;-2.80;99.90;;;;;;4919756;29;19915;-81
2023/02/10 06:11:30;;;;;;;;;;;-2.70;99.90;;;;;;4937138;29;19943;-81
2023/02/10 06:13:55;;;;;;;;;;;-2.70;99.90;;;;;;4917742;29;19927;-81
2023/02/10 06:16:21;;;;;;;;;;;-2.70;99.90;;;;;;4910562;29;19915;-82
2023/02/10 06:18:47;;;;;;;;;;;-2.70;99.90;;;;;;4940209;29;19922;-80
2023/02/10 06:21:16;;;;;;;;;;;-2.70;99.90;;;;;;4933329;29;20018;-79
2023/02/10 06:23:41;;;;;;;;;;;-2.70;99.90;;;;;;4942416;28;19911;-81
2023/02/10 06:26:07;;;;;;;;;;;-2.70;99.90;;;;;;4930113;29;19989;-81
2023/02/10 06:28:33;;;;;;;;;;;-2.70;99.90;;;;;;4912183;29;20439;-83
2023/02/10 06:30:58;;;;;;;;;;;-2.70;99.90;;;;;;4923452;29;19915;-80
2023/02/10 06:33:24;;;;;;;;;;;-2.70;99.90;;;;;;4921388;29;19921;-84
2023/02/10 06:35:50;;;;;;;;;;;-2.70;99.90;;;;;;4919899;29;19911;-83
2023/02/10 06:38:15;;;;;;;;;;;-2.70;99.90;;;;;;4941927;29;19922;-82
2023/02/10 06:40:41;;;;;;;;;;;-2.70;99.90;;;;;;4942169;29;19915;-82
2023/02/10 06:43:06;;;;;;;;;;;-2.80;99.90;;;;;;4936163;29;20046;-83
2023/02/10 06:45:33;;;;;;;;;;;-2.70;99.90;;;;;;4933679;29;19978;-83
2023/02/10 06:47:59;;;;;;;;;;;-2.70;99.90;;;;;;4921148;29;19912;-83
2023/02/10 06:50:28;;;;;;;;;;;-2.70;99.90;;;;;;4947860;29;20152;-83
2023/02/10 06:52:53;;;;;;;;;;;-2.70;99.90;;;;;;4943681;29;19912;-83
2023/02/10 06:55:19;;;;;;;;;;;-2.70;99.90;;;;;;4936909;29;19983;-83
2023/02/10 06:57:44;;;;;;;;;;;-2.60;99.90;;;;;;4936451;29;20033;-82
2023/02/10 07:00:11;;;;;;;;;;;-2.60;99.90;;;;;;4935977;29;19911;-83
2023/02/10 07:02:37;;;;;;;;;;;-2.50;99.90;;;;;;4937520;29;19912;-82
2023/02/10 07:05:05;;;;;;;;;;;-2.50;99.90;;;;;;4937243;29;19922;-84
2023/02/10 07:07:31;;;;;;;;;;;-2.50;99.90;;;;;;4920819;29;19946;-83
2023/02/10 07:09:56;;;;;;;;;;;-2.40;99.90;;;;;;4927508;29;19915;-82
2023/02/10 07:12:24;;;;;;;;;;;-2.40;99.80;;;;;;4910107;29;20050;-83
2023/02/10 07:14:50;;;;;;;;;;;-2.30;99.60;;;;;;4919121;29;20464;-82
2023/02/10 07:17:15;;;;;;;;;;;-2.30;99.40;;;;;;4916888;29;19915;-83
2023/02/10 07:19:41;;;;;;;;;;;-2.20;99.30;;;;;;4940272;29;19918;-83
2023/02/10 07:22:06;;;;;;;;;;;-2.20;99.10;;;;;;4929408;29;19923;-83
2023/02/10 07:24:32;;;;;;;;;;;-2.20;98.90;;;;;;4937688;28;19907;-83
2023/02/10 07:26:59;;;;;;;;;;;-2.10;98.90;;;;;;4942147;28;19995;-83
2023/02/10 07:29:24;;;;;;;;;;;-2.10;98.70;;;;;;4928067;29;19911;-84
2023/02/10 07:31:50;;;;;;;;;;;-2.00;98.60;;;;;;4927958;29;19939;-84
2023/02/10 07:34:17;;;;;;;;;;;-1.90;98.60;;;;;;4909858;29;19986;-83
2023/02/10 07:36:43;;;;;;;;;;;-1.80;98.20;;;;;;4910656;29;19911;-83
2023/02/10 07:39:10;;;;;;;;;;;-1.80;98.00;;;;;;4925666;29;19963;-84
2023/02/10 07:41:36;;;;;;;;;;;-1.70;97.80;;;;;;4924472;29;19915;-83
2023/02/10 07:44:02;;;;;;;;;;;-1.70;97.60;;;;;;4907883;29;19926;-84
2023/02/10 07:46:28;;;;;;;;;;;-1.60;97.50;;;;;;4916610;29;19911;-84
2023/02/10 07:48:54;;;;;;;;;;;-1.50;97.40;;;;;;4934787;29;19934;-85
2023/02/10 07:51:19;;;;;;;;;;;-1.20;97.30;;;;;;4909463;29;19915;-86
2023/02/10 07:53:45;;;;;;;;;;;-0.70;97.00;;;;;;4925444;29;19926;-84
2023/02/10 07:56:10;;;;;;;;;;;-0.20;95.30;;;;;;4925884;29;19934;-84
2023/02/10 07:58:36;;;;;;;;;;;-0.20;94.20;;;;;;4924753;29;19934;-83
2023/02/10 08:01:09;;;;;;;;;;;-0.30;93.90;;;;;;4924334;29;20021;-84
2023/02/10 08:03:35;;;;;;;;;;;-0.50;93.90;;;;;;4922786;29;19982;-84
2023/02/10 08:06:00;;;;;;;;;;;-0.60;94.00;;;;;;4924175;29;19951;-81
2023/02/10 08:08:26;;;;;;;;;;;-0.60;94.10;;;;;;4929467;29;19911;-83
2023/02/10 08:10:51;;;;;;;;;;;-0.40;94.80;;;;;;4911117;29;19961;-82
2023/02/10 08:13:18;;;;;;;;;;;1.00;94.60;;;;;;4910864;29;19918;-88
2023/02/10 08:15:43;;;;;;;;;;;1.90;91.70;;;;;;4910329;29;19918;-84
2023/02/10 08:18:12;;;;;;;;;;;1.90;90.00;;;;;;4936520;29;19911;-88
2023/02/10 08:20:40;;;;;;;;;;;1.60;89.00;;;;;;4939065;29;19933;-81
2023/02/10 08:23:05;;;;;;;;;;;1.20;89.10;;;;;;4914782;29;19919;-83
2023/02/10 08:25:40;;;;;;;;;;;1.00;90.00;;;;;;4933485;29;19922;-84
2023/02/10 08:28:06;;;;;;;;;;;1.10;90.90;;;;;;4906568;29;19911;-83
2023/02/10 08:30:31;;;;;;;;;;;2.70;91.10;;;;;;4923587;29;19922;-84
2023/02/10 08:43:29;;;;;;;;;;;3.50;85.50;;;;;;5137312;27;20401;-82
2023/02/10 08:45:55;;;;;;;;;;;1.90;84.60;;;;;;5116127;28;19922;-83
2023/02/10 08:48:21;;;;;;;;;;;1.80;85.10;;;;;;5109951;28;19909;-84
2023/02/10 08:50:46;;;;;;;;;;;1.90;85.40;;;;;;5114507;28;19919;-83
2023/02/10 08:53:12;;;;;;;;;;;1.90;84.80;;;;;;5117727;28;19908;-86
2023/02/10 08:55:38;;;;;;;;;;;1.90;85.10;;;;;;5126525;28;19933;-83
2023/02/10 08:58:03;;;;;;;;;;;2.00;84.40;;;;;;5127996;28;19908;-82
2023/02/10 09:00:29;;;;;;;;;;;2.00;84.60;;;;;;5131301;28;19924;-83
2023/02/10 09:02:54;;;;;;;;;;;2.20;84.80;;;;;;5132580;27;19919;-83
2023/02/10 09:05:20;;;;;;;;;;;2.30;83.50;;;;;;5105948;28;19912;-82
2023/02/10 09:07:46;;;;;;;;;;;2.40;82.80;;;;;;5105810;28;20279;-83
2023/02/10 09:10:12;;;;;;;;;;;2.50;82.10;;;;;;5102596;28;19998;-82
2023/02/10 09:12:38;;;;;;;;;;;2.60;82.10;;;;;;5113498;28;19920;-84
2023/02/10 09:15:03;;;;;;;;;;;2.80;82.10;;;;;;5122406;28;19904;-84
2023/02/10 09:17:29;;;;;;;;;;;3.10;81.40;;;;;;5128064;27;19976;-84
2023/02/10 09:19:55;;;;;;;;;;;3.30;80.70;;;;;;5115484;28;19935;-84
2023/02/10 09:22:20;;;;;;;;;;;3.40;79.50;;;;;;5106476;28;19954;-85
2023/02/10 09:24:47;;;;;;;;;;;3.50;79.00;;;;;;5113382;28;19919;-81
2023/02/10 09:27:14;;;;;;;;;;;3.60;77.80;;;;;;5098943;28;19908;-80
2023/02/10 09:29:40;;;;;;;;;;;3.70;76.50;;;;;;5110155;28;19908;-82
2023/02/10 09:32:05;;;;;;;;;;;3.80;76.80;;;;;;5108225;28;19997;-82
2023/02/10 09:34:31;;;;;;;;;;;3.90;76.10;;;;;;5098689;28;19908;-80
2023/02/10 09:37:00;;;;;;;;;;;4.00;75.60;;;;;;5111593;28;19899;-83
2023/02/10 09:39:26;;;;;;;;;;;4.10;75.00;;;;;;5134136;27;19943;-80
2023/02/10 09:42:06;;;;;;;;;;;4.10;75.10;;;;;;5118178;28;19958;-81
2023/02/10 09:44:34;;;;;;;;;;;4.20;75.00;;;;;;5105504;28;19915;-81
2023/02/10 09:47:00;;;;;;;;;;;4.30;74.50;;;;;;5101252;28;19908;-82
2023/02/10 09:49:44;;;;;;;;;;;4.60;75.10;;;;;;5092882;28;19950;-82
2023/02/10 09:52:12;;;;;;;;;;;5.10;74.00;;;;;;5080653;28;19916;-82
2023/02/10 09:54:39;;;;;;;;;;;5.50;72.00;;;;;;5080481;28;19927;-83
2023/02/10 09:57:08;;;;;;;;;;;5.50;71.00;;;;;;5079729;28;20290;-83
2023/02/10 09:59:35;;;;;;;;;;;5.40;70.50;;;;;;5080027;28;19909;-80
2023/02/10 10:02:03;;;;;;;;;;;5.60;70.30;;;;;;5078541;28;20339;-82
2023/02/10 10:04:30;;;;;;;;;;;6.00;70.10;;;;;;5094821;28;19908;-81
2023/02/10 10:07:14;;;;;;;;;;;6.10;68.90;;;;;;5080281;28;19980;-82
2023/02/10 10:09:42;;;;;;;;;;;6.00;68.70;;;;;;5081039;28;19920;-81
2023/02/10 10:12:11;;;;;;;;;;;5.90;67.40;;;;;;5080088;28;20374;-82
2023/02/10 10:14:38;;;;;;;;;;;5.70;68.40;;;;;;5081052;28;19991;-82
2023/02/10 10:17:22;;;;;;;;;;;5.50;69.50;;;;;;5089184;28;20342;-82
2023/02/10 10:20:00;;;;;;;;;;;5.50;70.10;;;;;;5099863;28;19908;-82
2023/02/10 10:22:44;;;;;;;;;;;5.50;70.00;;;;;;5115532;28;19908;-82
2023/02/10 10:25:10;;;;;;;;;;;5.60;70.00;;;;;;5099886;28;19912;-83
2023/02/10 10:27:46;;;;;;;;;;;5.50;69.70;;;;;;5100391;28;19915;-83
2023/02/10 10:30:17;;;;;;;;;;;5.50;69.70;;;;;;5099606;28;19969;-82
2023/02/10 10:32:47;;;;;;;;;;;5.50;70.20;;;;;;5101424;28;19948;-82
2023/02/10 10:35:21;;;;;;;;;;;5.60;69.90;;;;;;5099706;28;20275;-82
2023/02/10 10:37:47;;;;;;;;;;;5.60;69.60;;;;;;5100226;28;19931;-82
2023/02/10 10:40:18;;;;;;;;;;;5.60;69.30;;;;;;5104197;28;19908;-83
2023/02/10 10:42:50;;;;;;;;;;;5.60;69.40;;;;;;5130645;28;19916;-83
2023/02/10 10:45:21;;;;;;;;;;;5.70;69.40;;;;;;5115745;28;19928;-82
2023/02/10 10:47:49;;;;;;;;;;;5.70;69.10;;;;;;5104689;28;20113;-82
2023/02/10 10:50:16;;;;;;;;;;;5.60;69.30;;;;;;5102263;28;19991;-81
2023/02/10 10:52:42;;;;;;;;;;;5.70;69.20;;;;;;5103192;28;20289;-82
2023/02/10 10:55:12;;;;;;;;;;;5.70;69.10;;;;;;5100532;28;19972;-82
2023/02/10 10:57:39;;;;;;;;;;;5.80;68.90;;;;;;5102794;28;19908;-83
2023/02/10 11:00:20;;;;;;;;;;;5.80;68.60;;;;;;5108849;28;19950;-82
2023/02/10 11:02:53;;;;;;;;;;;5.80;68.20;;;;;;5108129;28;19998;-82
2023/02/10 11:05:20;;;;;;;;;;;5.80;68.30;;;;;;5107124;28;19909;-82
2023/02/10 11:07:50;;;;;;;;;;;5.80;68.10;;;;;;5108425;28;19908;-82
2023/02/10 11:10:24;;;;;;;;;;;5.80;68.20;;;;;;5104826;28;19908;-81
2023/02/10 11:12:49;;;;;;;;;;;5.90;68.40;;;;;;5099722;28;19912;-82
2023/02/10 11:15:33;;;;;;;;;;;5.90;67.30;;;;;;5115953;28;19916;-82
2023/02/10 11:18:00;;;;;;;;;;;5.90;67.60;;;;;;5093222;28;20458;-81
2023/02/10 11:20:36;;;;;;;;;;;5.90;67.80;;;;;;5082169;28;19916;-80
2023/02/10 11:23:03;;;;;;;;;;;6.00;66.70;;;;;;5093165;28;19916;-80
2023/02/10 11:25:29;;;;;;;;;;;6.00;66.10;;;;;;5082726;28;19957;-81
2023/02/10 11:27:55;;;;;;;;;;;5.90;66.50;;;;;;5091070;28;20372;-81
2023/02/10 11:30:38;;;;;;;;;;;5.80;66.30;;;;;;5098993;28;19967;-81
2023/02/10 11:33:05;;;;;;;;;;;5.80;67.00;;;;;;5102188;28;19912;-82
2023/02/10 11:35:31;;;;;;;;;;;5.90;67.00;;;;;;5103889;28;19938;-84
2023/02/10 11:38:14;;;;;;;;;;;6.00;67.30;;;;;;5106233;28;19935;-83
2023/02/10 11:40:53;;;;;;;;;;;6.00;65.40;;;;;;5086063;28;19919;-83
2023/02/10 11:43:19;;;;;;;;;;;6.00;66.10;;;;;;5089433;28;19923;-83
2023/02/10 11:45:53;;;;;;;;;;;6.00;66.10;;;;;;5106818;28;19908;-83
2023/02/10 11:48:19;;;;;;;;;;;6.00;66.10;;;;;;5094453;28;19916;-83
2023/02/10 11:50:45;;;;;;;;;;;6.10;66.50;;;;;;5100635;28;20033;-82
2023/02/10 11:53:25;;;;;;;;;;;6.30;66.60;;;;;;5099898;28;19940;-82
2023/02/10 11:56:04;;;;;;;;;;;6.70;65.70;;;;;;5103023;28;19912;-83
2023/02/10 11:58:59;;;;;;;;;;;7.10;64.00;;;;;;5114723;28;19933;-83
2023/02/10 12:01:31;;;;;;;;;;;7.20;62.90;;;;;;5111827;28;19915;-82
2023/02/10 12:04:13;;;;;;;;;;;7.00;61.90;;;;;;5125149;28;19932;-83
2023/02/10 12:06:43;;;;;;;;;;;6.80;63.10;;;;;;5097396;28;19988;-84
2023/02/10 12:09:15;;;;;;;;;;;6.70;63.60;;;;;;5106382;28;19927;-84
2023/02/10 12:11:55;;;;;;;;;;;6.90;61.50;;;;;;5116974;28;19912;-84
2023/02/10 12:14:39;;;;;;;;;;;7.10;60.80;;;;;;5102344;28;19976;-82
2023/02/10 12:17:13;;;;;;;;;;;7.10;60.20;;;;;;5091610;28;19908;-83
2023/02/10 12:19:46;;;;;;;;;;;7.00;60.00;;;;;;5100698;28;20361;-83
2023/02/10 12:22:33;;;;;;;;;;;6.70;60.60;;;;;;5086229;28;19991;-83
2023/02/10 12:25:05;;;;;;;;;;;6.60;61.30;;;;;;5088315;28;19908;-83
2023/02/10 12:27:40;;;;;;;;;;;6.60;62.20;;;;;;5100557;28;19920;-82
2023/02/10 12:30:21;;;;;;;;;;;6.60;61.60;;;;;;5114136;28;19968;-82
2023/02/10 12:33:02;;;;;;;;;;;6.60;61.90;;;;;;5133430;27;19920;-82
2023/02/10 12:35:46;;;;;;;;;;;6.70;62.00;;;;;;5104288;28;19920;-82
2023/02/10 12:38:17;;;;;;;;;;;7.10;59.90;;;;;;5095964;28;19943;-83
2023/02/10 12:41:01;;;;;;;;;;;7.50;59.90;;;;;;5097224;28;19912;-83
2023/02/10 12:43:26;;;;;;;;;;;7.60;58.60;;;;;;5109030;28;19916;-83
2023/02/10 12:46:01;;;;;;;;;;;7.60;57.40;;;;;;5121820;28;20286;-83
2023/02/10 12:48:33;;;;;;;;;;;7.30;57.80;;;;;;5089655;28;19940;-83
2023/02/10 12:51:17;;;;;;;;;;;7.10;59.20;;;;;;5107030;28;20131;-82
2023/02/10 12:53:53;;;;;;;;;;;7.10;58.80;;;;;;5107586;28;19935;-84
2023/02/10 12:56:19;;;;;;;;;;;7.00;60.00;;;;;;5105567;28;19908;-83
2023/02/10 12:58:46;;;;;;;;;;;7.00;60.30;;;;;;5123508;28;19909;-83
2023/02/10 13:01:34;;;;;;;;;;;7.00;58.50;;;;;;5107551;28;19915;-84
2023/02/10 13:04:12;;;;;;;;;;;7.00;59.20;;;;;;5084815;28;19931;-83
2023/02/10 13:06:50;;;;;;;;;;;7.00;59.40;;;;;;5102052;28;19908;-84
2023/02/10 13:09:42;;;;;;;;;;;6.90;59.50;;;;;;5102587;28;19908;-83
2023/02/10 13:12:21;;;;;;;;;;;7.00;59.30;;;;;;5101871;28;20290;-83
2023/02/10 13:14:48;;;;;;;;;;;7.10;58.50;;;;;;5103260;28;19908;-84
2023/02/10 13:17:14;;;;;;;;;;;7.10;58.10;;;;;;5120952;28;20370;-82
2023/02/10 13:19:47;;;;;;;;;;;7.10;58.50;;;;;;5107130;28;19915;-84
2023/02/10 13:22:18;;;;;;;;;;;7.10;57.50;;;;;;5120229;28;19900;-85
2023/02/10 13:24:48;;;;;;;;;;;7.20;57.10;;;;;;5111981;28;19923;-84
2023/02/10 13:27:25;;;;;;;;;;;7.20;57.40;;;;;;5090730;28;19988;-83
2023/02/10 13:30:00;;;;;;;;;;;7.20;57.20;;;;;;5084577;28;19913;-83
2023/02/10 13:32:47;;;;;;;;;;;7.30;56.90;;;;;;5104298;28;19966;-83
2023/02/10 13:35:19;;;;;;;;;;;7.30;57.40;;;;;;5103747;28;19936;-85
2023/02/10 13:37:44;;;;;;;;;;;7.50;56.50;;;;;;5086826;28;19987;-84
2023/02/10 13:40:18;;;;;;;;;;;7.50;56.20;;;;;;5086881;28;19912;-83
2023/02/10 13:43:03;;;;;;;;;;;7.50;56.80;;;;;;5091572;28;19963;-85
2023/02/10 13:45:36;;;;;;;;;;;7.50;56.90;;;;;;5091892;28;19912;-84
2023/02/10 13:48:07;;;;;;;;;;;7.60;55.30;;;;;;5092986;28;19909;-84
2023/02/10 13:50:45;;;;;;;;;;;7.40;55.60;;;;;;5101962;28;19930;-84
2023/02/10 13:53:26;;;;;;;;;;;7.30;56.20;;;;;;5087748;28;20231;-86
2023/02/10 13:56:02;;;;;;;;;;;7.10;56.10;;;;;;5083182;28;19909;-82
2023/02/10 13:58:30;;;;;;;;;;;6.90;56.70;;;;;;5082864;28;19944;-82
2023/02/10 14:00:56;;;;;;;;;;;6.80;57.30;;;;;;5094249;28;19958;-83
2023/02/10 14:03:23;;;;;;;;;;;6.90;57.10;;;;;;5108398;28;19912;-82
2023/02/10 14:05:53;;;;;;;;;;;6.80;56.90;;;;;;5113376;28;19963;-83
2023/02/10 14:08:31;;;;;;;;;;;6.90;56.30;;;;;;5118767;28;19915;-82
2023/02/10 14:11:15;;;;;;;;;;;6.80;56.50;;;;;;5104078;28;19908;-83
2023/02/10 14:13:44;;;;;;;;;;;6.70;56.50;;;;;;5087174;28;19912;-84
2023/02/10 14:16:13;;;;;;;;;;;6.80;57.20;;;;;;5080115;28;20337;-83
2023/02/10 14:18:39;;;;;;;;;;;6.70;56.30;;;;;;5087152;28;20382;-82
2023/02/10 14:21:16;;;;;;;;;;;6.70;56.70;;;;;;5096617;28;19919;-82
2023/02/10 14:23:43;;;;;;;;;;;6.70;57.00;;;;;;5081831;28;19909;-84
2023/02/10 14:26:18;;;;;;;;;;;6.70;57.50;;;;;;5100799;28;20441;-84
2023/02/10 14:28:47;;;;;;;;;;;6.70;57.60;;;;;;5104598;28;19912;-83
2023/02/10 14:31:13;;;;;;;;;;;6.60;58.10;;;;;;5118666;28;20291;-83
2023/02/10 14:33:38;;;;;;;;;;;6.60;58.40;;;;;;5101521;28;19951;-81
2023/02/10 14:36:06;;;;;;;;;;;6.60;58.60;;;;;;5099764;28;20013;-81
2023/02/10 14:38:34;;;;;;;;;;;6.60;58.50;;;;;;5098437;28;19908;-81
2023/02/10 14:41:00;;;;;;;;;;;6.60;58.30;;;;;;5104618;28;19915;-82
2023/02/10 14:43:29;;;;;;;;;;;6.60;58.80;;;;;;5099859;28;19956;-83